sensor_id;sensor_type;location;lat;lon;timestamp;temperature;humidity
76384;SHT30;65204;48.606;7.598;2023-02-27T00:00:05;0.97;57.49
76384;SHT30;65204;48.606;7.598;2023-02-27T00:00:36;0.97;57.82
76384;SHT30;65204;48.606;7.598;2023-02-27T00:01:06;0.99;57.66
76384;SHT30;65204;48.606;7.598;2023-02-27T00:01:37;0.97;57.60
76384;SHT30;65204;48.606;7.598;2023-02-27T00:02:08;0.92;57.94
76384;SHT30;65204;48.606;7.598;2023-02-27T00:02:40;0.82;57.89
76384;SHT30;65204;48.606;7.598;2023-02-27T00:03:10;0.93;58.06
76384;SHT30;65204;48.606;7.598;2023-02-27T00:03:41;0.93;57.81
76384;SHT30;65204;48.606;7.598;2023-02-27T00:04:11;0.95;57.92
76384;SHT30;65204;48.606;7.598;2023-02-27T00:04:42;1.03;57.65
76384;SHT30;65204;48.606;7.598;2023-02-27T00:05:13;1.09;57.64
76384;SHT30;65204;48.606;7.598;2023-02-27T00:05:43;1.03;57.51
76384;SHT30;65204;48.606;7.598;2023-02-27T00:06:13;0.96;57.53
76384;SHT30;65204;48.606;7.598;2023-02-27T00:06:46;0.99;57.50
76384;SHT30;65204;48.606;7.598;2023-02-27T00:07:17;0.90;57.68
76384;SHT30;65204;48.606;7.598;2023-02-27T00:07:47;0.96;58.01
76384;SHT30;65204;48.606;7.598;2023-02-27T00:08:18;1.06;57.67
76384;SHT30;65204;48.606;7.598;2023-02-27T00:08:48;1.00;58.06
76384;SHT30;65204;48.606;7.598;2023-02-27T00:09:18;0.93;58.12
76384;SHT30;65204;48.606;7.598;2023-02-27T00:09:49;0.88;58.10
76384;SHT30;65204;48.606;7.598;2023-02-27T00:10:19;0.89;58.27
76384;SHT30;65204;48.606;7.598;2023-02-27T00:10:50;0.96;58.19
76384;SHT30;65204;48.606;7.598;2023-02-27T00:11:20;0.88;58.44
76384;SHT30;65204;48.606;7.598;2023-02-27T00:11:51;0.93;58.54
76384;SHT30;65204;48.606;7.598;2023-02-27T00:12:21;0.88;58.45
76384;SHT30;65204;48.606;7.598;2023-02-27T00:12:51;0.92;58.23
76384;SHT30;65204;48.606;7.598;2023-02-27T00:13:22;1.01;58.30
76384;SHT30;65204;48.606;7.598;2023-02-27T00:13:52;0.99;58.34
76384;SHT30;65204;48.606;7.598;2023-02-27T00:14:23;0.79;58.52
76384;SHT30;65204;48.606;7.598;2023-02-27T00:14:53;0.83;58.84
76384;SHT30;65204;48.606;7.598;2023-02-27T00:15:24;0.90;58.55
76384;SHT30;65204;48.606;7.598;2023-02-27T00:15:54;0.83;58.60
76384;SHT30;65204;48.606;7.598;2023-02-27T00:16:25;0.90;58.74
76384;SHT30;65204;48.606;7.598;2023-02-27T00:16:55;1.01;58.32
76384;SHT30;65204;48.606;7.598;2023-02-27T00:17:26;0.96;58.45
76384;SHT30;65204;48.606;7.598;2023-02-27T00:17:58;0.95;58.59
76384;SHT30;65204;48.606;7.598;2023-02-27T00:18:29;0.88;58.80
76384;SHT30;65204;48.606;7.598;2023-02-27T00:19:00;0.90;58.61
76384;SHT30;65204;48.606;7.598;2023-02-27T00:19:33;0.73;59.00
76384;SHT30;65204;48.606;7.598;2023-02-27T00:20:06;0.90;58.87
76384;SHT30;65204;48.606;7.598;2023-02-27T00:20:36;0.88;58.79
76384;SHT30;65204;48.606;7.598;2023-02-27T00:21:07;0.93;58.69
76384;SHT30;65204;48.606;7.598;2023-02-27T00:21:38;0.96;58.65
76384;SHT30;65204;48.606;7.598;2023-02-27T00:22:08;0.95;58.63
76384;SHT30;65204;48.606;7.598;2023-02-27T00:22:39;0.96;58.92
76384;SHT30;65204;48.606;7.598;2023-02-27T00:23:10;0.96;58.96
76384;SHT30;65204;48.606;7.598;2023-02-27T00:23:40;1.01;58.80
76384;SHT30;65204;48.606;7.598;2023-02-27T00:24:11;1.03;58.67
76384;SHT30;65204;48.606;7.598;2023-02-27T00:24:41;0.83;58.90
76384;SHT30;65204;48.606;7.598;2023-02-27T00:25:12;0.85;59.18
76384;SHT30;65204;48.606;7.598;2023-02-27T00:25:42;0.90;59.42
76384;SHT30;65204;48.606;7.598;2023-02-27T00:26:13;0.80;59.70
76384;SHT30;65204;48.606;7.598;2023-02-27T00:26:43;0.80;59.81
76384;SHT30;65204;48.606;7.598;2023-02-27T00:27:13;0.88;59.46
76384;SHT30;65204;48.606;7.598;2023-02-27T00:27:44;0.92;59.15
76384;SHT30;65204;48.606;7.598;2023-02-27T00:28:14;0.93;59.24
76384;SHT30;65204;48.606;7.598;2023-02-27T00:28:45;0.93;59.05
76384;SHT30;65204;48.606;7.598;2023-02-27T00:29:15;0.89;59.21
76384;SHT30;65204;48.606;7.598;2023-02-27T00:29:45;0.93;59.28
76384;SHT30;65204;48.606;7.598;2023-02-27T00:30:16;0.99;59.11
76384;SHT30;65204;48.606;7.598;2023-02-27T00:30:46;0.92;59.38
76384;SHT30;65204;48.606;7.598;2023-02-27T00:31:17;0.92;59.78
76384;SHT30;65204;48.606;7.598;2023-02-27T00:31:47;0.90;59.94
76384;SHT30;65204;48.606;7.598;2023-02-27T00:32:17;0.83;59.74
76384;SHT30;65204;48.606;7.598;2023-02-27T00:32:48;0.89;59.40
76384;SHT30;65204;48.606;7.598;2023-02-27T00:33:18;0.99;59.33
76384;SHT30;65204;48.606;7.598;2023-02-27T00:33:49;0.93;59.15
76384;SHT30;65204;48.606;7.598;2023-02-27T00:34:19;0.93;59.46
76384;SHT30;65204;48.606;7.598;2023-02-27T00:34:50;1.01;59.30
76384;SHT30;65204;48.606;7.598;2023-02-27T00:35:20;0.97;59.41
76384;SHT30;65204;48.606;7.598;2023-02-27T00:35:58;0.95;59.53
76384;SHT30;65204;48.606;7.598;2023-02-27T00:36:29;0.95;59.70
76384;SHT30;65204;48.606;7.598;2023-02-27T00:36:59;0.97;59.45
76384;SHT30;65204;48.606;7.598;2023-02-27T00:37:30;1.03;59.25
76384;SHT30;65204;48.606;7.598;2023-02-27T00:38:01;1.04;59.29
76384;SHT30;65204;48.606;7.598;2023-02-27T00:38:31;1.07;59.22
76384;SHT30;65204;48.606;7.598;2023-02-27T00:39:02;1.01;59.38
76384;SHT30;65204;48.606;7.598;2023-02-27T00:39:32;1.04;59.49
76384;SHT30;65204;48.606;7.598;2023-02-27T00:40:03;1.00;59.84
76384;SHT30;65204;48.606;7.598;2023-02-27T00:40:34;1.00;59.70
76384;SHT30;65204;48.606;7.598;2023-02-27T00:41:05;0.99;59.73
76384;SHT30;65204;48.606;7.598;2023-02-27T00:41:35;0.86;60.10
76384;SHT30;65204;48.606;7.598;2023-02-27T00:42:05;0.90;60.23
76384;SHT30;65204;48.606;7.598;2023-02-27T00:42:36;0.86;60.46
76384;SHT30;65204;48.606;7.598;2023-02-27T00:43:06;0.79;60.17
76384;SHT30;65204;48.606;7.598;2023-02-27T00:43:37;0.90;60.21
76384;SHT30;65204;48.606;7.598;2023-02-27T00:44:07;0.95;60.02
76384;SHT30;65204;48.606;7.598;2023-02-27T00:44:37;0.99;60.06
76384;SHT30;65204;48.606;7.598;2023-02-27T00:45:09;0.96;59.97
76384;SHT30;65204;48.606;7.598;2023-02-27T00:45:40;1.00;59.82
76384;SHT30;65204;48.606;7.598;2023-02-27T00:46:10;1.00;59.96
76384;SHT30;65204;48.606;7.598;2023-02-27T00:46:41;0.99;60.11
76384;SHT30;65204;48.606;7.598;2023-02-27T00:47:11;0.97;60.25
76384;SHT30;65204;48.606;7.598;2023-02-27T00:47:41;0.96;60.35
76384;SHT30;65204;48.606;7.598;2023-02-27T00:48:12;1.06;59.89
76384;SHT30;65204;48.606;7.598;2023-02-27T00:48:42;1.07;59.80
76384;SHT30;65204;48.606;7.598;2023-02-27T00:49:12;0.96;59.72
76384;SHT30;65204;48.606;7.598;2023-02-27T00:49:43;0.96;59.75
76384;SHT30;65204;48.606;7.598;2023-02-27T00:50:13;0.97;59.80
76384;SHT30;65204;48.606;7.598;2023-02-27T00:50:44;0.92;60.07
76384;SHT30;65204;48.606;7.598;2023-02-27T00:51:14;0.83;60.28
76384;SHT30;65204;48.606;7.598;2023-02-27T00:51:44;0.85;60.31
76384;SHT30;65204;48.606;7.598;2023-02-27T00:52:15;0.90;60.33
76384;SHT30;65204;48.606;7.598;2023-02-27T00:52:46;0.93;60.11
76384;SHT30;65204;48.606;7.598;2023-02-27T00:53:16;0.90;60.16
76384;SHT30;65204;48.606;7.598;2023-02-27T00:53:47;0.82;60.52
76384;SHT30;65204;48.606;7.598;2023-02-27T00:54:17;0.68;60.53
76384;SHT30;65204;48.606;7.598;2023-02-27T00:54:48;0.78;60.78
76384;SHT30;65204;48.606;7.598;2023-02-27T00:55:18;0.61;60.85
76384;SHT30;65204;48.606;7.598;2023-02-27T00:55:49;0.69;60.82
76384;SHT30;65204;48.606;7.598;2023-02-27T00:56:19;0.73;60.90
76384;SHT30;65204;48.606;7.598;2023-02-27T00:56:49;0.70;60.86
76384;SHT30;65204;48.606;7.598;2023-02-27T00:57:20;0.73;61.05
76384;SHT30;65204;48.606;7.598;2023-02-27T00:57:50;0.65;61.24
76384;SHT30;65204;48.606;7.598;2023-02-27T00:58:21;0.69;60.86
76384;SHT30;65204;48.606;7.598;2023-02-27T00:58:51;0.78;60.91
76384;SHT30;65204;48.606;7.598;2023-02-27T00:59:21;0.70;61.04
76384;SHT30;65204;48.606;7.598;2023-02-27T00:59:52;0.70;60.99
76384;SHT30;65204;48.606;7.598;2023-02-27T01:00:22;0.73;60.70
76384;SHT30;65204;48.606;7.598;2023-02-27T01:00:52;0.68;60.98
76384;SHT30;65204;48.606;7.598;2023-02-27T01:01:23;0.72;60.87
76384;SHT30;65204;48.606;7.598;2023-02-27T01:01:53;0.70;60.89
76384;SHT30;65204;48.606;7.598;2023-02-27T01:02:23;0.72;61.01
76384;SHT30;65204;48.606;7.598;2023-02-27T01:02:54;0.79;60.83
76384;SHT30;65204;48.606;7.598;2023-02-27T01:03:24;0.70;60.60
76384;SHT30;65204;48.606;7.598;2023-02-27T01:03:55;0.70;60.71
76384;SHT30;65204;48.606;7.598;2023-02-27T01:04:25;0.70;60.89
76384;SHT30;65204;48.606;7.598;2023-02-27T01:04:55;0.69;60.86
76384;SHT30;65204;48.606;7.598;2023-02-27T01:05:26;0.68;60.94
76384;SHT30;65204;48.606;7.598;2023-02-27T01:05:56;0.64;60.96
76384;SHT30;65204;48.606;7.598;2023-02-27T01:06:27;0.72;60.87
76384;SHT30;65204;48.606;7.598;2023-02-27T01:06:57;0.78;60.88
76384;SHT30;65204;48.606;7.598;2023-02-27T01:07:28;0.78;60.92
76384;SHT30;65204;48.606;7.598;2023-02-27T01:07:58;0.72;60.99
76384;SHT30;65204;48.606;7.598;2023-02-27T01:08:29;0.75;60.89
76384;SHT30;65204;48.606;7.598;2023-02-27T01:08:59;0.76;60.93
76384;SHT30;65204;48.606;7.598;2023-02-27T01:09:29;0.80;60.69
76384;SHT30;65204;48.606;7.598;2023-02-27T01:10:00;0.73;60.82
76384;SHT30;65204;48.606;7.598;2023-02-27T01:10:31;0.80;60.82
76384;SHT30;65204;48.606;7.598;2023-02-27T01:11:01;0.79;60.82
76384;SHT30;65204;48.606;7.598;2023-02-27T01:11:31;0.69;60.74
76384;SHT30;65204;48.606;7.598;2023-02-27T01:12:02;0.80;60.93
76384;SHT30;65204;48.606;7.598;2023-02-27T01:12:33;0.86;60.71
76384;SHT30;65204;48.606;7.598;2023-02-27T01:13:04;0.85;60.80
76384;SHT30;65204;48.606;7.598;2023-02-27T01:13:34;0.93;60.51
76384;SHT30;65204;48.606;7.598;2023-02-27T01:14:04;0.93;60.37
76384;SHT30;65204;48.606;7.598;2023-02-27T01:14:35;0.93;60.45
76384;SHT30;65204;48.606;7.598;2023-02-27T01:15:06;0.96;60.36
76384;SHT30;65204;48.606;7.598;2023-02-27T01:15:37;0.92;60.38
76384;SHT30;65204;48.606;7.598;2023-02-27T01:16:07;0.89;60.45
76384;SHT30;65204;48.606;7.598;2023-02-27T01:16:39;0.93;60.56
76384;SHT30;65204;48.606;7.598;2023-02-27T01:17:09;0.95;60.33
76384;SHT30;65204;48.606;7.598;2023-02-27T01:17:40;0.83;60.69
76384;SHT30;65204;48.606;7.598;2023-02-27T01:18:10;0.80;60.91
76384;SHT30;65204;48.606;7.598;2023-02-27T01:18:41;0.75;61.00
76384;SHT30;65204;48.606;7.598;2023-02-27T01:19:11;0.79;60.89
76384;SHT30;65204;48.606;7.598;2023-02-27T01:19:42;0.69;61.26
76384;SHT30;65204;48.606;7.598;2023-02-27T01:20:12;0.73;61.18
76384;SHT30;65204;48.606;7.598;2023-02-27T01:20:43;0.72;61.25
76384;SHT30;65204;48.606;7.598;2023-02-27T01:21:13;0.58;61.43
76384;SHT30;65204;48.606;7.598;2023-02-27T01:21:44;0.56;61.68
76384;SHT30;65204;48.606;7.598;2023-02-27T01:22:14;0.58;61.76
76384;SHT30;65204;48.606;7.598;2023-02-27T01:22:44;0.58;61.62
76384;SHT30;65204;48.606;7.598;2023-02-27T01:23:15;0.66;61.44
76384;SHT30;65204;48.606;7.598;2023-02-27T01:23:45;0.69;61.25
76384;SHT30;65204;48.606;7.598;2023-02-27T01:24:15;0.68;61.37
76384;SHT30;65204;48.606;7.598;2023-02-27T01:24:46;0.69;61.47
76384;SHT30;65204;48.606;7.598;2023-02-27T01:25:16;0.66;61.43
76384;SHT30;65204;48.606;7.598;2023-02-27T01:25:47;0.59;61.82
76384;SHT30;65204;48.606;7.598;2023-02-27T01:26:18;0.62;61.48
76384;SHT30;65204;48.606;7.598;2023-02-27T01:26:48;0.72;61.36
76384;SHT30;65204;48.606;7.598;2023-02-27T01:27:18;0.59;61.31
76384;SHT30;65204;48.606;7.598;2023-02-27T01:27:49;0.69;61.49
76384;SHT30;65204;48.606;7.598;2023-02-27T01:28:19;0.68;61.63
76384;SHT30;65204;48.606;7.598;2023-02-27T01:28:50;0.52;62.00
76384;SHT30;65204;48.606;7.598;2023-02-27T01:29:20;0.49;62.13
76384;SHT30;65204;48.606;7.598;2023-02-27T01:29:50;0.52;61.89
76384;SHT30;65204;48.606;7.598;2023-02-27T01:30:21;0.59;61.86
76384;SHT30;65204;48.606;7.598;2023-02-27T01:30:51;0.59;62.02
76384;SHT30;65204;48.606;7.598;2023-02-27T01:31:22;0.58;61.84
76384;SHT30;65204;48.606;7.598;2023-02-27T01:31:52;0.61;61.74
76384;SHT30;65204;48.606;7.598;2023-02-27T01:32:22;0.59;61.80
76384;SHT30;65204;48.606;7.598;2023-02-27T01:32:53;0.51;61.97
76384;SHT30;65204;48.606;7.598;2023-02-27T01:33:23;0.49;61.79
76384;SHT30;65204;48.606;7.598;2023-02-27T01:33:53;0.54;62.06
76384;SHT30;65204;48.606;7.598;2023-02-27T01:34:24;0.55;61.94
76384;SHT30;65204;48.606;7.598;2023-02-27T01:34:54;0.54;62.00
76384;SHT30;65204;48.606;7.598;2023-02-27T01:35:24;0.46;62.11
76384;SHT30;65204;48.606;7.598;2023-02-27T01:35:55;0.45;62.32
76384;SHT30;65204;48.606;7.598;2023-02-27T01:36:25;0.54;62.33
76384;SHT30;65204;48.606;7.598;2023-02-27T01:36:55;0.44;62.17
76384;SHT30;65204;48.606;7.598;2023-02-27T01:37:26;0.55;62.27
76384;SHT30;65204;48.606;7.598;2023-02-27T01:37:56;0.54;62.19
76384;SHT30;65204;48.606;7.598;2023-02-27T01:38:26;0.45;62.14
76384;SHT30;65204;48.606;7.598;2023-02-27T01:38:57;0.51;62.14
76384;SHT30;65204;48.606;7.598;2023-02-27T01:39:27;0.46;62.17
76384;SHT30;65204;48.606;7.598;2023-02-27T01:39:58;0.49;62.12
76384;SHT30;65204;48.606;7.598;2023-02-27T01:40:28;0.54;62.05
76384;SHT30;65204;48.606;7.598;2023-02-27T01:40:59;0.48;62.04
76384;SHT30;65204;48.606;7.598;2023-02-27T01:41:30;0.52;62.24
76384;SHT30;65204;48.606;7.598;2023-02-27T01:42:00;0.62;61.93
76384;SHT30;65204;48.606;7.598;2023-02-27T01:42:31;0.68;61.80
76384;SHT30;65204;48.606;7.598;2023-02-27T01:43:02;0.68;61.63
76384;SHT30;65204;48.606;7.598;2023-02-27T01:43:33;0.72;61.54
76384;SHT30;65204;48.606;7.598;2023-02-27T01:44:07;0.64;61.71
76384;SHT30;65204;48.606;7.598;2023-02-27T01:45:06;0.65;61.67
76384;SHT30;65204;48.606;7.598;2023-02-27T01:45:39;0.75;61.62
76384;SHT30;65204;48.606;7.598;2023-02-27T01:46:10;0.64;61.97
76384;SHT30;65204;48.606;7.598;2023-02-27T01:46:41;0.66;61.83
76384;SHT30;65204;48.606;7.598;2023-02-27T01:47:11;0.69;61.81
76384;SHT30;65204;48.606;7.598;2023-02-27T01:47:47;0.58;62.12
76384;SHT30;65204;48.606;7.598;2023-02-27T01:49:50;0.66;61.92
76384;SHT30;65204;48.606;7.598;2023-02-27T01:50:20;0.56;62.00
76384;SHT30;65204;48.606;7.598;2023-02-27T01:51:00;0.54;62.16
76384;SHT30;65204;48.606;7.598;2023-02-27T01:51:36;0.52;62.20
76384;SHT30;65204;48.606;7.598;2023-02-27T01:52:09;0.59;62.24
76384;SHT30;65204;48.606;7.598;2023-02-27T01:52:43;0.41;62.53
76384;SHT30;65204;48.606;7.598;2023-02-27T01:53:14;0.51;62.27
76384;SHT30;65204;48.606;7.598;2023-02-27T01:53:48;0.56;62.28
76384;SHT30;65204;48.606;7.598;2023-02-27T01:54:23;0.65;62.07
76384;SHT30;65204;48.606;7.598;2023-02-27T01:54:56;0.59;61.91
76384;SHT30;65204;48.606;7.598;2023-02-27T01:55:28;0.56;62.29
76384;SHT30;65204;48.606;7.598;2023-02-27T01:56:33;0.55;62.67
76384;SHT30;65204;48.606;7.598;2023-02-27T01:57:03;0.59;62.54
76384;SHT30;65204;48.606;7.598;2023-02-27T01:57:35;0.58;62.40
76384;SHT30;65204;48.606;7.598;2023-02-27T01:58:08;0.68;62.06
76384;SHT30;65204;48.606;7.598;2023-02-27T01:58:41;0.62;62.11
76384;SHT30;65204;48.606;7.598;2023-02-27T01:59:12;0.65;62.23
76384;SHT30;65204;48.606;7.598;2023-02-27T01:59:44;0.65;62.03
76384;SHT30;65204;48.606;7.598;2023-02-27T02:00:14;0.55;62.19
76384;SHT30;65204;48.606;7.598;2023-02-27T02:00:46;0.58;62.27
76384;SHT30;65204;48.606;7.598;2023-02-27T02:01:18;0.66;62.19
76384;SHT30;65204;48.606;7.598;2023-02-27T02:01:49;0.52;62.17
76384;SHT30;65204;48.606;7.598;2023-02-27T02:02:25;0.54;62.61
76384;SHT30;65204;48.606;7.598;2023-02-27T02:03:14;0.48;62.68
76384;SHT30;65204;48.606;7.598;2023-02-27T02:04:46;0.46;62.50
76384;SHT30;65204;48.606;7.598;2023-02-27T02:04:46;0.49;62.51
76384;SHT30;65204;48.606;7.598;2023-02-27T02:05:18;0.51;62.84
76384;SHT30;65204;48.606;7.598;2023-02-27T02:05:51;0.46;62.79
76384;SHT30;65204;48.606;7.598;2023-02-27T02:06:22;0.49;62.75
76384;SHT30;65204;48.606;7.598;2023-02-27T02:06:57;0.46;62.79
76384;SHT30;65204;48.606;7.598;2023-02-27T02:07:28;0.42;63.02
76384;SHT30;65204;48.606;7.598;2023-02-27T02:07:59;0.44;62.89
76384;SHT30;65204;48.606;7.598;2023-02-27T02:08:34;0.55;62.75
76384;SHT30;65204;48.606;7.598;2023-02-27T02:09:06;0.46;62.77
76384;SHT30;65204;48.606;7.598;2023-02-27T02:09:43;0.49;62.69
76384;SHT30;65204;48.606;7.598;2023-02-27T02:10:15;0.35;63.00
76384;SHT30;65204;48.606;7.598;2023-02-27T02:10:47;0.41;63.30
76384;SHT30;65204;48.606;7.598;2023-02-27T02:11:21;0.31;63.33
76384;SHT30;65204;48.606;7.598;2023-02-27T02:11:52;0.42;63.19
76384;SHT30;65204;48.606;7.598;2023-02-27T02:12:34;0.32;63.14
76384;SHT30;65204;48.606;7.598;2023-02-27T02:13:06;0.34;63.30
76384;SHT30;65204;48.606;7.598;2023-02-27T02:13:38;0.41;63.34
76384;SHT30;65204;48.606;7.598;2023-02-27T02:14:09;0.37;63.08
76384;SHT30;65204;48.606;7.598;2023-02-27T02:14:40;0.45;63.30
76384;SHT30;65204;48.606;7.598;2023-02-27T02:15:10;0.41;63.35
76384;SHT30;65204;48.606;7.598;2023-02-27T02:16:07;0.45;63.29
76384;SHT30;65204;48.606;7.598;2023-02-27T02:16:51;0.51;63.02
76384;SHT30;65204;48.606;7.598;2023-02-27T02:18:33;0.52;62.97
76384;SHT30;65204;48.606;7.598;2023-02-27T02:19:41;0.49;63.08
76384;SHT30;65204;48.606;7.598;2023-02-27T02:22:32;0.41;63.34
76384;SHT30;65204;48.606;7.598;2023-02-27T02:25:00;0.58;62.86
76384;SHT30;65204;48.606;7.598;2023-02-27T02:26:56;0.42;63.07
76384;SHT30;65204;48.606;7.598;2023-02-27T02:30:31;0.27;63.85
76384;SHT30;65204;48.606;7.598;2023-02-27T02:32:30;0.25;64.03
76384;SHT30;65204;48.606;7.598;2023-02-27T02:38:39;0.24;64.16
76384;SHT30;65204;48.606;7.598;2023-02-27T02:40:22;0.21;64.42
76384;SHT30;65204;48.606;7.598;2023-02-27T02:41:23;0.19;64.18
76384;SHT30;65204;48.606;7.598;2023-02-27T02:42:27;0.17;64.49
76384;SHT30;65204;48.606;7.598;2023-02-27T02:43:30;0.24;64.48
76384;SHT30;65204;48.606;7.598;2023-02-27T02:44:19;0.17;64.55
76384;SHT30;65204;48.606;7.598;2023-02-27T02:45:32;0.05;64.82
76384;SHT30;65204;48.606;7.598;2023-02-27T02:46:24;0.21;64.82
76384;SHT30;65204;48.606;7.598;2023-02-27T02:47:18;0.29;64.47
76384;SHT30;65204;48.606;7.598;2023-02-27T02:48:18;0.35;64.04
76384;SHT30;65204;48.606;7.598;2023-02-27T02:49:02;0.21;64.08
76384;SHT30;65204;48.606;7.598;2023-02-27T02:49:48;0.40;64.05
76384;SHT30;65204;48.606;7.598;2023-02-27T02:50:25;0.34;64.26
76384;SHT30;65204;48.606;7.598;2023-02-27T02:51:10;0.31;64.28
76384;SHT30;65204;48.606;7.598;2023-02-27T02:53:16;0.42;63.78
76384;SHT30;65204;48.606;7.598;2023-02-27T02:53:55;0.42;63.81
76384;SHT30;65204;48.606;7.598;2023-02-27T02:54:38;0.48;63.87
76384;SHT30;65204;48.606;7.598;2023-02-27T02:55:33;0.49;63.75
76384;SHT30;65204;48.606;7.598;2023-02-27T02:56:21;0.46;63.81
76384;SHT30;65204;48.606;7.598;2023-02-27T02:57:07;0.49;63.83
76384;SHT30;65204;48.606;7.598;2023-02-27T02:57:43;0.48;63.86
76384;SHT30;65204;48.606;7.598;2023-02-27T02:58:36;0.51;63.75
76384;SHT30;65204;48.606;7.598;2023-02-27T03:00:01;0.51;63.73
76384;SHT30;65204;48.606;7.598;2023-02-27T03:00:37;0.54;63.79
76384;SHT30;65204;48.606;7.598;2023-02-27T03:01:26;0.54;63.83
76384;SHT30;65204;48.606;7.598;2023-02-27T03:02:02;0.54;63.50
76384;SHT30;65204;48.606;7.598;2023-02-27T03:02:38;0.52;63.72
76384;SHT30;65204;48.606;7.598;2023-02-27T03:03:20;0.46;63.81
76384;SHT30;65204;48.606;7.598;2023-02-27T03:04:00;0.48;63.79
76384;SHT30;65204;48.606;7.598;2023-02-27T03:04:46;0.49;63.89
76384;SHT30;65204;48.606;7.598;2023-02-27T03:05:26;0.37;63.89
76384;SHT30;65204;48.606;7.598;2023-02-27T03:06:10;0.35;64.26
76384;SHT30;65204;48.606;7.598;2023-02-27T03:06:51;0.42;64.45
76384;SHT30;65204;48.606;7.598;2023-02-27T03:08:14;0.41;64.23
76384;SHT30;65204;48.606;7.598;2023-02-27T03:09:00;0.41;64.11
76384;SHT30;65204;48.606;7.598;2023-02-27T03:09:45;0.44;64.20
76384;SHT30;65204;48.606;7.598;2023-02-27T03:10:20;0.49;64.14
76384;SHT30;65204;48.606;7.598;2023-02-27T03:10:56;0.48;64.05
76384;SHT30;65204;48.606;7.598;2023-02-27T03:11:30;0.51;64.08
76384;SHT30;65204;48.606;7.598;2023-02-27T03:12:04;0.46;64.11
76384;SHT30;65204;48.606;7.598;2023-02-27T03:12:41;0.46;64.21
76384;SHT30;65204;48.606;7.598;2023-02-27T03:13:18;0.46;64.16
76384;SHT30;65204;48.606;7.598;2023-02-27T03:13:54;0.42;64.37
76384;SHT30;65204;48.606;7.598;2023-02-27T03:14:47;0.38;64.46
76384;SHT30;65204;48.606;7.598;2023-02-27T03:15:29;0.25;65.07
76384;SHT30;65204;48.606;7.598;2023-02-27T03:16:45;0.35;64.82
76384;SHT30;65204;48.606;7.598;2023-02-27T03:17:25;0.28;64.95
76384;SHT30;65204;48.606;7.598;2023-02-27T03:18:09;0.21;64.84
76384;SHT30;65204;48.606;7.598;2023-02-27T03:18:52;0.27;65.03
76384;SHT30;65204;48.606;7.598;2023-02-27T03:19:30;0.35;64.73
76384;SHT30;65204;48.606;7.598;2023-02-27T03:20:06;0.40;64.63
76384;SHT30;65204;48.606;7.598;2023-02-27T03:20:40;0.37;64.72
76384;SHT30;65204;48.606;7.598;2023-02-27T03:21:22;0.41;64.61
76384;SHT30;65204;48.606;7.598;2023-02-27T03:22:35;0.42;64.50
76384;SHT30;65204;48.606;7.598;2023-02-27T03:23:10;0.41;64.63
76384;SHT30;65204;48.606;7.598;2023-02-27T03:23:43;0.34;64.68
76384;SHT30;65204;48.606;7.598;2023-02-27T03:24:24;0.35;64.91
76384;SHT30;65204;48.606;7.598;2023-02-27T03:24:58;0.40;64.80
76384;SHT30;65204;48.606;7.598;2023-02-27T03:25:30;0.38;65.10
76384;SHT30;65204;48.606;7.598;2023-02-27T03:26:03;0.40;64.95
76384;SHT30;65204;48.606;7.598;2023-02-27T03:26:38;0.34;65.07
76384;SHT30;65204;48.606;7.598;2023-02-27T03:27:10;0.38;64.90
76384;SHT30;65204;48.606;7.598;2023-02-27T03:27:46;0.38;64.78
76384;SHT30;65204;48.606;7.598;2023-02-27T03:28:23;0.42;64.71
76384;SHT30;65204;48.606;7.598;2023-02-27T03:28:59;0.46;64.64
76384;SHT30;65204;48.606;7.598;2023-02-27T03:29:37;0.48;64.49
76384;SHT30;65204;48.606;7.598;2023-02-27T03:30:27;0.49;64.29
76384;SHT30;65204;48.606;7.598;2023-02-27T03:31:06;0.49;64.30
76384;SHT30;65204;48.606;7.598;2023-02-27T03:31:45;0.45;64.37
76384;SHT30;65204;48.606;7.598;2023-02-27T03:33:18;0.46;64.50
76384;SHT30;65204;48.606;7.598;2023-02-27T03:33:56;0.51;64.50
76384;SHT30;65204;48.606;7.598;2023-02-27T03:34:32;0.51;64.23
76384;SHT30;65204;48.606;7.598;2023-02-27T03:35:05;0.49;64.28
76384;SHT30;65204;48.606;7.598;2023-02-27T03:36:02;0.45;64.56
76384;SHT30;65204;48.606;7.598;2023-02-27T03:37:55;0.25;65.24
76384;SHT30;65204;48.606;7.598;2023-02-27T03:38:35;0.28;65.17
76384;SHT30;65204;48.606;7.598;2023-02-27T03:39:22;0.32;65.14
76384;SHT30;65204;48.606;7.598;2023-02-27T03:40:47;0.34;64.96
76384;SHT30;65204;48.606;7.598;2023-02-27T03:42:14;0.32;65.07
76384;SHT30;65204;48.606;7.598;2023-02-27T03:44:06;0.32;64.97
76384;SHT30;65204;48.606;7.598;2023-02-27T03:44:52;0.31;65.07
76384;SHT30;65204;48.606;7.598;2023-02-27T03:46:07;0.29;65.41
76384;SHT30;65204;48.606;7.598;2023-02-27T03:46:39;0.28;65.23
76384;SHT30;65204;48.606;7.598;2023-02-27T03:47:10;0.25;65.15
76384;SHT30;65204;48.606;7.598;2023-02-27T03:47:40;0.15;65.21
76384;SHT30;65204;48.606;7.598;2023-02-27T03:48:11;0.24;65.52
76384;SHT30;65204;48.606;7.598;2023-02-27T03:48:41;0.24;65.40
76384;SHT30;65204;48.606;7.598;2023-02-27T03:49:13;0.27;65.30
76384;SHT30;65204;48.606;7.598;2023-02-27T03:49:44;0.25;65.27
76384;SHT30;65204;48.606;7.598;2023-02-27T03:50:14;0.25;65.34
76384;SHT30;65204;48.606;7.598;2023-02-27T03:50:45;0.28;65.28
76384;SHT30;65204;48.606;7.598;2023-02-27T03:51:21;0.29;65.21
76384;SHT30;65204;48.606;7.598;2023-02-27T03:51:52;0.29;65.19
76384;SHT30;65204;48.606;7.598;2023-02-27T03:52:24;0.27;65.33
76384;SHT30;65204;48.606;7.598;2023-02-27T03:52:55;0.24;65.44
76384;SHT30;65204;48.606;7.598;2023-02-27T03:53:31;0.15;65.54
76384;SHT30;65204;48.606;7.598;2023-02-27T03:54:13;0.21;65.72
76384;SHT30;65204;48.606;7.598;2023-02-27T03:54:52;0.11;65.62
76384;SHT30;65204;48.606;7.598;2023-02-27T03:55:33;0.18;65.75
76384;SHT30;65204;48.606;7.598;2023-02-27T03:56:07;0.15;65.73
76384;SHT30;65204;48.606;7.598;2023-02-27T03:56:51;0.17;65.66
76384;SHT30;65204;48.606;7.598;2023-02-27T03:57:25;0.19;65.54
76384;SHT30;65204;48.606;7.598;2023-02-27T03:57:56;0.18;65.48
76384;SHT30;65204;48.606;7.598;2023-02-27T03:58:26;0.21;65.55
76384;SHT30;65204;48.606;7.598;2023-02-27T03:58:57;0.18;65.51
76384;SHT30;65204;48.606;7.598;2023-02-27T03:59:29;0.18;65.46
76384;SHT30;65204;48.606;7.598;2023-02-27T04:00:00;0.15;65.44
76384;SHT30;65204;48.606;7.598;2023-02-27T04:00:33;0.17;65.45
76384;SHT30;65204;48.606;7.598;2023-02-27T04:01:04;0.18;65.42
76384;SHT30;65204;48.606;7.598;2023-02-27T04:01:34;0.19;65.52
76384;SHT30;65204;48.606;7.598;2023-02-27T04:02:05;0.17;65.52
76384;SHT30;65204;48.606;7.598;2023-02-27T04:02:37;0.17;65.54
76384;SHT30;65204;48.606;7.598;2023-02-27T04:03:09;0.15;65.83
76384;SHT30;65204;48.606;7.598;2023-02-27T04:03:55;0.17;65.76
76384;SHT30;65204;48.606;7.598;2023-02-27T04:04:28;0.17;65.53
76384;SHT30;65204;48.606;7.598;2023-02-27T04:05:01;0.19;65.41
76384;SHT30;65204;48.606;7.598;2023-02-27T04:05:31;0.13;65.48
76384;SHT30;65204;48.606;7.598;2023-02-27T04:06:02;0.17;65.40
76384;SHT30;65204;48.606;7.598;2023-02-27T04:07:01;0.18;65.46
76384;SHT30;65204;48.606;7.598;2023-02-27T04:13:15;0.10;65.64